sensor_id;sensor_type;location;lat;lon;timestamp;P1;durP1;ratioP1;P2;durP2;ratioP2
3343;SDS011;1685;53.104;8.228;2023-01-28T00:00:58;10.33;;;9.33;;
3343;SDS011;1685;53.104;8.228;2023-01-28T00:03:30;10.70;;;9.07;;
3343;SDS011;1685;53.104;8.228;2023-01-28T00:06:00;11.50;;;10.30;;
3343;SDS011;1685;53.104;8.228;2023-01-28T00:08:28;9.10;;;8.20;;
3343;SDS011;1685;53.104;8.228;2023-01-28T00:10:57;11.23;;;10.13;;
3343;SDS011;1685;53.104;8.228;2023-01-28T00:13:26;11.80;;;9.17;;
3343;SDS011;1685;53.104;8.228;2023-01-28T00:15:53;9.40;;;8.50;;
3343;SDS011;1685;53.104;8.228;2023-01-28T00:18:21;12.07;;;9.10;;
3343;SDS011;1685;53.104;8.228;2023-01-28T00:20:54;10.23;;;9.23;;
3343;SDS011;1685;53.104;8.228;2023-01-28T00:23:22;9.43;;;8.33;;
3343;SDS011;1685;53.104;8.228;2023-01-28T00:25:49;11.30;;;8.73;;
3343;SDS011;1685;53.104;8.228;2023-01-28T00:28:16;11.57;;;10.37;;
3343;SDS011;1685;53.104;8.228;2023-01-28T00:30:44;10.70;;;9.70;;
3343;SDS011;1685;53.104;8.228;2023-01-28T00:33:11;12.00;;;9.03;;
3343;SDS011;1685;53.104;8.228;2023-01-28T00:35:38;12.47;;;10.80;;
3343;SDS011;1685;53.104;8.228;2023-01-28T00:38:05;12.10;;;10.80;;
3343;SDS011;1685;53.104;8.228;2023-01-28T00:40:33;10.67;;;9.67;;
3343;SDS011;1685;53.104;8.228;2023-01-28T00:43:00;8.90;;;8.00;;
3343;SDS011;1685;53.104;8.228;2023-01-28T00:45:27;10.13;;;9.13;;
3343;SDS011;1685;53.104;8.228;2023-01-28T00:47:55;10.73;;;9.60;;
3343;SDS011;1685;53.104;8.228;2023-01-28T00:50:22;11.07;;;9.87;;
3343;SDS011;1685;53.104;8.228;2023-01-28T00:52:49;10.40;;;9.30;;
3343;SDS011;1685;53.104;8.228;2023-01-28T00:55:16;10.60;;;9.50;;
3343;SDS011;1685;53.104;8.228;2023-01-28T00:57:43;12.27;;;10.97;;
3343;SDS011;1685;53.104;8.228;2023-01-28T01:00:10;11.20;;;9.97;;
3343;SDS011;1685;53.104;8.228;2023-01-28T01:02:37;11.30;;;10.13;;
3343;SDS011;1685;53.104;8.228;2023-01-28T01:05:06;14.43;;;9.37;;
3343;SDS011;1685;53.104;8.228;2023-01-28T01:07:33;11.63;;;9.80;;
3343;SDS011;1685;53.104;8.228;2023-01-28T01:10:07;11.40;;;9.37;;
3343;SDS011;1685;53.104;8.228;2023-01-28T01:12:35;11.50;;;9.37;;
3343;SDS011;1685;53.104;8.228;2023-01-28T01:15:03;10.27;;;9.30;;
3343;SDS011;1685;53.104;8.228;2023-01-28T01:17:34;11.60;;;9.07;;
3343;SDS011;1685;53.104;8.228;2023-01-28T01:20:02;10.43;;;9.37;;
3343;SDS011;1685;53.104;8.228;2023-01-28T01:22:32;9.30;;;8.43;;
3343;SDS011;1685;53.104;8.228;2023-01-28T01:24:59;11.00;;;9.50;;
3343;SDS011;1685;53.104;8.228;2023-01-28T01:27:27;10.17;;;9.17;;
3343;SDS011;1685;53.104;8.228;2023-01-28T01:29:54;11.57;;;10.47;;
3343;SDS011;1685;53.104;8.228;2023-01-28T01:32:22;10.30;;;9.30;;
3343;SDS011;1685;53.104;8.228;2023-01-28T01:34:50;11.17;;;10.03;;
3343;SDS011;1685;53.104;8.228;2023-01-28T01:37:17;10.83;;;9.63;;
3343;SDS011;1685;53.104;8.228;2023-01-28T01:39:45;9.77;;;8.83;;
3343;SDS011;1685;53.104;8.228;2023-01-28T01:42:13;10.77;;;9.27;;
3343;SDS011;1685;53.104;8.228;2023-01-28T01:44:54;9.97;;;9.03;;
3343;SDS011;1685;53.104;8.228;2023-01-28T01:47:23;10.37;;;9.33;;
3343;SDS011;1685;53.104;8.228;2023-01-28T01:49:52;10.60;;;8.97;;
3343;SDS011;1685;53.104;8.228;2023-01-28T01:52:21;10.37;;;9.37;;
3343;SDS011;1685;53.104;8.228;2023-01-28T01:54:55;11.73;;;9.07;;
3343;SDS011;1685;53.104;8.228;2023-01-28T01:57:26;12.73;;;9.77;;
3343;SDS011;1685;53.104;8.228;2023-01-28T01:59:55;11.40;;;9.77;;
3343;SDS011;1685;53.104;8.228;2023-01-28T02:02:30;10.60;;;9.50;;
3343;SDS011;1685;53.104;8.228;2023-01-28T02:05:00;11.03;;;9.37;;
3343;SDS011;1685;53.104;8.228;2023-01-28T02:07:28;13.47;;;10.20;;
3343;SDS011;1685;53.104;8.228;2023-01-28T02:09:56;11.60;;;9.30;;
3343;SDS011;1685;53.104;8.228;2023-01-28T02:12:24;11.37;;;9.73;;
3343;SDS011;1685;53.104;8.228;2023-01-28T02:14:54;9.80;;;8.50;;
3343;SDS011;1685;53.104;8.228;2023-01-28T02:17:27;11.60;;;10.07;;
3343;SDS011;1685;53.104;8.228;2023-01-28T02:19:55;10.37;;;9.27;;
3343;SDS011;1685;53.104;8.228;2023-01-28T02:25:35;10.37;;;8.57;;
3343;SDS011;1685;53.104;8.228;2023-01-28T02:28:26;10.83;;;9.73;;
3343;SDS011;1685;53.104;8.228;2023-01-28T02:31:02;10.13;;;9.10;;
3343;SDS011;1685;53.104;8.228;2023-01-28T02:33:35;9.33;;;8.43;;
3343;SDS011;1685;53.104;8.228;2023-01-28T02:36:10;12.00;;;9.77;;
3343;SDS011;1685;53.104;8.228;2023-01-28T02:38:44;10.57;;;9.47;;
3343;SDS011;1685;53.104;8.228;2023-01-28T02:41:14;10.60;;;9.50;;
3343;SDS011;1685;53.104;8.228;2023-01-28T02:43:47;10.20;;;9.23;;
3343;SDS011;1685;53.104;8.228;2023-01-28T02:46:16;12.70;;;9.57;;
3343;SDS011;1685;53.104;8.228;2023-01-28T02:49:05;12.00;;;9.17;;
3343;SDS011;1685;53.104;8.228;2023-01-28T02:54:27;10.63;;;9.53;;
3343;SDS011;1685;53.104;8.228;2023-01-28T02:57:00;9.40;;;8.53;;
3343;SDS011;1685;53.104;8.228;2023-01-28T02:59:38;10.00;;;9.00;;
3343;SDS011;1685;53.104;8.228;2023-01-28T03:02:16;11.20;;;8.47;;
3343;SDS011;1685;53.104;8.228;2023-01-28T03:04:49;10.30;;;9.20;;
3343;SDS011;1685;53.104;8.228;2023-01-28T03:07:22;9.60;;;8.63;;
3343;SDS011;1685;53.104;8.228;2023-01-28T03:09:52;11.27;;;8.60;;
3343;SDS011;1685;53.104;8.228;2023-01-28T03:12:23;9.47;;;8.57;;
3343;SDS011;1685;53.104;8.228;2023-01-28T03:15:12;11.03;;;8.50;;
3343;SDS011;1685;53.104;8.228;2023-01-28T03:18:00;10.07;;;9.07;;
3343;SDS011;1685;53.104;8.228;2023-01-28T03:20:47;9.40;;;8.47;;
3343;SDS011;1685;53.104;8.228;2023-01-28T03:23:38;11.80;;;8.60;;
3343;SDS011;1685;53.104;8.228;2023-01-28T03:26:27;10.77;;;8.70;;
3343;SDS011;1685;53.104;8.228;2023-01-28T03:29:15;10.27;;;8.73;;
3343;SDS011;1685;53.104;8.228;2023-01-28T03:32:03;11.40;;;8.60;;
3343;SDS011;1685;53.104;8.228;2023-01-28T03:34:48;10.77;;;8.43;;
3343;SDS011;1685;53.104;8.228;2023-01-28T03:37:32;9.87;;;8.90;;
3343;SDS011;1685;53.104;8.228;2023-01-28T03:40:00;15.10;;;9.27;;
3343;SDS011;1685;53.104;8.228;2023-01-28T03:42:29;16.30;;;9.97;;
3343;SDS011;1685;53.104;8.228;2023-01-28T03:44:56;9.13;;;8.30;;
3343;SDS011;1685;53.104;8.228;2023-01-28T03:47:27;9.97;;;8.83;;
3343;SDS011;1685;53.104;8.228;2023-01-28T03:49:55;10.50;;;9.40;;
3343;SDS011;1685;53.104;8.228;2023-01-28T03:52:25;10.30;;;9.30;;
3343;SDS011;1685;53.104;8.228;2023-01-28T03:54:53;11.67;;;9.00;;
3343;SDS011;1685;53.104;8.228;2023-01-28T03:57:21;9.73;;;8.67;;
3343;SDS011;1685;53.104;8.228;2023-01-28T03:59:50;9.90;;;8.90;;
3343;SDS011;1685;53.104;8.228;2023-01-28T04:02:17;15.87;;;8.90;;
3343;SDS011;1685;53.104;8.228;2023-01-28T04:04:46;9.47;;;8.03;;
3343;SDS011;1685;53.104;8.228;2023-01-28T04:07:14;13.07;;;8.33;;
3343;SDS011;1685;53.104;8.228;2023-01-28T04:09:41;11.00;;;8.53;;
3343;SDS011;1685;53.104;8.228;2023-01-28T04:12:08;12.10;;;9.00;;
3343;SDS011;1685;53.104;8.228;2023-01-28T04:14:35;8.83;;;7.83;;
3343;SDS011;1685;53.104;8.228;2023-01-28T04:17:04;10.57;;;8.90;;
3343;SDS011;1685;53.104;8.228;2023-01-28T04:19:34;14.20;;;9.20;;
3343;SDS011;1685;53.104;8.228;2023-01-28T04:22:02;9.53;;;8.53;;
3343;SDS011;1685;53.104;8.228;2023-01-28T04:24:30;12.00;;;8.60;;
3343;SDS011;1685;53.104;8.228;2023-01-28T04:26:57;13.93;;;9.13;;
3343;SDS011;1685;53.104;8.228;2023-01-28T04:29:24;8.47;;;7.40;;
3343;SDS011;1685;53.104;8.228;2023-01-28T04:31:51;10.17;;;9.13;;
3343;SDS011;1685;53.104;8.228;2023-01-28T04:34:18;12.30;;;8.73;;
3343;SDS011;1685;53.104;8.228;2023-01-28T04:36:45;8.80;;;7.90;;
3343;SDS011;1685;53.104;8.228;2023-01-28T04:39:14;9.77;;;8.07;;
3343;SDS011;1685;53.104;8.228;2023-01-28T04:41:40;9.23;;;8.30;;
3343;SDS011;1685;53.104;8.228;2023-01-28T04:44:07;9.47;;;8.57;;
3343;SDS011;1685;53.104;8.228;2023-01-28T04:46:34;10.23;;;9.10;;
3343;SDS011;1685;53.104;8.228;2023-01-28T04:49:01;9.23;;;8.07;;
3343;SDS011;1685;53.104;8.228;2023-01-28T04:51:28;10.40;;;8.40;;
3343;SDS011;1685;53.104;8.228;2023-01-28T04:53:55;8.90;;;8.00;;
3343;SDS011;1685;53.104;8.228;2023-01-28T04:56:24;10.27;;;9.20;;
3343;SDS011;1685;53.104;8.228;2023-01-28T04:58:50;14.20;;;8.80;;
3343;SDS011;1685;53.104;8.228;2023-01-28T05:01:17;12.40;;;8.43;;
3343;SDS011;1685;53.104;8.228;2023-01-28T05:03:44;12.03;;;9.23;;
3343;SDS011;1685;53.104;8.228;2023-01-28T05:06:12;13.33;;;8.03;;
3343;SDS011;1685;53.104;8.228;2023-01-28T05:08:39;12.87;;;10.23;;
3343;SDS011;1685;53.104;8.228;2023-01-28T05:11:06;11.03;;;8.20;;
3343;SDS011;1685;53.104;8.228;2023-01-28T05:13:34;13.63;;;8.53;;
3343;SDS011;1685;53.104;8.228;2023-01-28T05:16:01;10.40;;;9.00;;
3343;SDS011;1685;53.104;8.228;2023-01-28T05:18:28;11.10;;;8.80;;
3343;SDS011;1685;53.104;8.228;2023-01-28T05:20:55;11.13;;;8.50;;
3343;SDS011;1685;53.104;8.228;2023-01-28T05:23:22;10.63;;;8.60;;
3343;SDS011;1685;53.104;8.228;2023-01-28T05:25:49;11.50;;;9.80;;
3343;SDS011;1685;53.104;8.228;2023-01-28T05:28:16;12.00;;;9.23;;
3343;SDS011;1685;53.104;8.228;2023-01-28T05:30:44;9.77;;;8.77;;
3343;SDS011;1685;53.104;8.228;2023-01-28T05:33:11;9.73;;;8.77;;
3343;SDS011;1685;53.104;8.228;2023-01-28T05:35:38;9.97;;;8.67;;
3343;SDS011;1685;53.104;8.228;2023-01-28T05:38:05;9.83;;;8.73;;
3343;SDS011;1685;53.104;8.228;2023-01-28T05:40:32;9.83;;;8.80;;
3343;SDS011;1685;53.104;8.228;2023-01-28T05:42:59;11.53;;;9.50;;
3343;SDS011;1685;53.104;8.228;2023-01-28T05:45:26;11.50;;;10.23;;
3343;SDS011;1685;53.104;8.228;2023-01-28T05:47:54;10.90;;;9.50;;
3343;SDS011;1685;53.104;8.228;2023-01-28T05:50:21;10.67;;;9.57;;
3343;SDS011;1685;53.104;8.228;2023-01-28T05:52:48;11.10;;;9.20;;
3343;SDS011;1685;53.104;8.228;2023-01-28T05:55:15;10.60;;;9.50;;
3343;SDS011;1685;53.104;8.228;2023-01-28T05:57:42;12.70;;;10.07;;
3343;SDS011;1685;53.104;8.228;2023-01-28T06:00:09;12.70;;;9.90;;
3343;SDS011;1685;53.104;8.228;2023-01-28T06:02:37;12.30;;;9.43;;
3343;SDS011;1685;53.104;8.228;2023-01-28T06:05:06;13.40;;;9.97;;
3343;SDS011;1685;53.104;8.228;2023-01-28T06:07:33;19.10;;;10.17;;
3343;SDS011;1685;53.104;8.228;2023-01-28T06:10:00;12.07;;;10.00;;
3343;SDS011;1685;53.104;8.228;2023-01-28T06:12:27;15.20;;;9.53;;
3343;SDS011;1685;53.104;8.228;2023-01-28T06:14:54;11.27;;;9.40;;
3343;SDS011;1685;53.104;8.228;2023-01-28T06:17:21;15.10;;;10.47;;
3343;SDS011;1685;53.104;8.228;2023-01-28T06:19:48;13.93;;;10.07;;
3343;SDS011;1685;53.104;8.228;2023-01-28T06:22:17;16.00;;;10.97;;
3343;SDS011;1685;53.104;8.228;2023-01-28T06:24:43;15.63;;;10.87;;
3343;SDS011;1685;53.104;8.228;2023-01-28T06:27:10;17.10;;;11.50;;
3343;SDS011;1685;53.104;8.228;2023-01-28T06:29:37;13.60;;;11.10;;
3343;SDS011;1685;53.104;8.228;2023-01-28T06:32:04;12.93;;;9.63;;
3343;SDS011;1685;53.104;8.228;2023-01-28T06:34:31;15.57;;;10.40;;
3343;SDS011;1685;53.104;8.228;2023-01-28T06:36:58;13.40;;;11.37;;
3343;SDS011;1685;53.104;8.228;2023-01-28T06:39:29;13.53;;;11.20;;
3343;SDS011;1685;53.104;8.228;2023-01-28T06:41:57;12.20;;;10.37;;
3343;SDS011;1685;53.104;8.228;2023-01-28T06:44:24;16.83;;;10.90;;
3343;SDS011;1685;53.104;8.228;2023-01-28T06:46:51;15.07;;;10.53;;
3343;SDS011;1685;53.104;8.228;2023-01-28T06:49:18;14.80;;;11.10;;
3343;SDS011;1685;53.104;8.228;2023-01-28T06:51:46;14.37;;;10.27;;
3343;SDS011;1685;53.104;8.228;2023-01-28T06:54:13;12.27;;;9.93;;
3343;SDS011;1685;53.104;8.228;2023-01-28T06:56:41;15.83;;;11.40;;
3343;SDS011;1685;53.104;8.228;2023-01-28T06:59:08;17.27;;;11.33;;
3343;SDS011;1685;53.104;8.228;2023-01-28T07:01:35;16.20;;;11.40;;
3343;SDS011;1685;53.104;8.228;2023-01-28T07:04:02;13.83;;;11.10;;
3343;SDS011;1685;53.104;8.228;2023-01-28T07:06:29;12.93;;;9.90;;
3343;SDS011;1685;53.104;8.228;2023-01-28T07:08:56;14.90;;;11.93;;
3343;SDS011;1685;53.104;8.228;2023-01-28T07:11:23;16.47;;;11.87;;
3343;SDS011;1685;53.104;8.228;2023-01-28T07:13:52;14.40;;;11.60;;
3343;SDS011;1685;53.104;8.228;2023-01-28T07:16:19;17.77;;;11.87;;
3343;SDS011;1685;53.104;8.228;2023-01-28T07:18:46;13.40;;;10.30;;
3343;SDS011;1685;53.104;8.228;2023-01-28T07:21:13;16.30;;;12.80;;
3343;SDS011;1685;53.104;8.228;2023-01-28T07:23:40;14.00;;;11.67;;
3343;SDS011;1685;53.104;8.228;2023-01-28T07:26:07;19.57;;;11.57;;
3343;SDS011;1685;53.104;8.228;2023-01-28T07:28:35;24.13;;;12.70;;
3343;SDS011;1685;53.104;8.228;2023-01-28T07:31:03;15.43;;;11.50;;
3343;SDS011;1685;53.104;8.228;2023-01-28T07:33:30;20.23;;;10.80;;
3343;SDS011;1685;53.104;8.228;2023-01-28T07:35:57;16.80;;;10.67;;
3343;SDS011;1685;53.104;8.228;2023-01-28T07:38:24;15.93;;;11.70;;
3343;SDS011;1685;53.104;8.228;2023-01-28T07:40:51;13.00;;;10.60;;
3343;SDS011;1685;53.104;8.228;2023-01-28T07:43:18;14.23;;;11.03;;
3343;SDS011;1685;53.104;8.228;2023-01-28T07:45:45;14.57;;;10.73;;
3343;SDS011;1685;53.104;8.228;2023-01-28T07:48:13;16.47;;;11.47;;
3343;SDS011;1685;53.104;8.228;2023-01-28T07:50:40;13.87;;;9.67;;
3343;SDS011;1685;53.104;8.228;2023-01-28T07:53:08;21.07;;;11.53;;
3343;SDS011;1685;53.104;8.228;2023-01-28T07:55:36;17.27;;;12.10;;
3343;SDS011;1685;53.104;8.228;2023-01-28T07:58:04;15.07;;;11.47;;
3343;SDS011;1685;53.104;8.228;2023-01-28T08:00:33;16.13;;;11.60;;
3343;SDS011;1685;53.104;8.228;2023-01-28T08:03:02;18.07;;;12.33;;
3343;SDS011;1685;53.104;8.228;2023-01-28T08:05:35;20.03;;;13.13;;
3343;SDS011;1685;53.104;8.228;2023-01-28T08:08:05;21.83;;;11.70;;
3343;SDS011;1685;53.104;8.228;2023-01-28T08:10:32;18.90;;;11.70;;
3343;SDS011;1685;53.104;8.228;2023-01-28T08:12:59;18.47;;;11.60;;
3343;SDS011;1685;53.104;8.228;2023-01-28T08:15:26;21.03;;;13.23;;
3343;SDS011;1685;53.104;8.228;2023-01-28T08:17:53;20.40;;;13.27;;
3343;SDS011;1685;53.104;8.228;2023-01-28T08:20:20;17.80;;;12.33;;
3343;SDS011;1685;53.104;8.228;2023-01-28T08:22:49;17.60;;;12.87;;
3343;SDS011;1685;53.104;8.228;2023-01-28T08:25:15;17.73;;;12.90;;
3343;SDS011;1685;53.104;8.228;2023-01-28T08:27:42;17.73;;;11.87;;
3343;SDS011;1685;53.104;8.228;2023-01-28T08:30:10;21.70;;;14.70;;
3343;SDS011;1685;53.104;8.228;2023-01-28T08:32:37;18.93;;;13.40;;
3343;SDS011;1685;53.104;8.228;2023-01-28T08:35:04;21.73;;;13.77;;
3343;SDS011;1685;53.104;8.228;2023-01-28T08:37:32;20.47;;;14.63;;
3343;SDS011;1685;53.104;8.228;2023-01-28T08:40:00;19.33;;;13.77;;
3343;SDS011;1685;53.104;8.228;2023-01-28T08:42:28;21.37;;;14.43;;
3343;SDS011;1685;53.104;8.228;2023-01-28T08:44:55;18.33;;;13.37;;
3343;SDS011;1685;53.104;8.228;2023-01-28T08:47:22;21.17;;;14.17;;
3343;SDS011;1685;53.104;8.228;2023-01-28T08:49:49;21.87;;;15.07;;
3343;SDS011;1685;53.104;8.228;2023-01-28T08:52:16;20.33;;;13.70;;
3343;SDS011;1685;53.104;8.228;2023-01-28T08:54:43;25.50;;;16.50;;
3343;SDS011;1685;53.104;8.228;2023-01-28T08:57:11;28.50;;;15.43;;
3343;SDS011;1685;53.104;8.228;2023-01-28T08:59:38;24.27;;;16.23;;
3343;SDS011;1685;53.104;8.228;2023-01-28T09:02:11;27.90;;;18.40;;
3343;SDS011;1685;53.104;8.228;2023-01-28T09:04:38;29.67;;;18.50;;
3343;SDS011;1685;53.104;8.228;2023-01-28T09:07:06;30.70;;;18.17;;
3343;SDS011;1685;53.104;8.228;2023-01-28T09:09:33;33.03;;;19.60;;
3343;SDS011;1685;53.104;8.228;2023-01-28T09:12:01;33.90;;;20.57;;
3343;SDS011;1685;53.104;8.228;2023-01-28T09:14:29;27.87;;;18.90;;
3343;SDS011;1685;53.104;8.228;2023-01-28T09:16:56;27.50;;;16.90;;
3343;SDS011;1685;53.104;8.228;2023-01-28T09:19:23;27.20;;;16.83;;
3343;SDS011;1685;53.104;8.228;2023-01-28T09:21:50;24.70;;;15.53;;
3343;SDS011;1685;53.104;8.228;2023-01-28T09:24:17;28.03;;;16.20;;
3343;SDS011;1685;53.104;8.228;2023-01-28T09:26:44;22.67;;;14.77;;
3343;SDS011;1685;53.104;8.228;2023-01-28T09:29:11;19.53;;;14.37;;
3343;SDS011;1685;53.104;8.228;2023-01-28T09:31:40;20.70;;;14.30;;
3343;SDS011;1685;53.104;8.228;2023-01-28T09:34:07;21.33;;;14.97;;
3343;SDS011;1685;53.104;8.228;2023-01-28T09:36:34;18.50;;;13.77;;
3343;SDS011;1685;53.104;8.228;2023-01-28T09:39:01;16.90;;;13.03;;
3343;SDS011;1685;53.104;8.228;2023-01-28T09:41:31;19.80;;;13.23;;
3343;SDS011;1685;53.104;8.228;2023-01-28T09:44:14;19.10;;;13.27;;
3343;SDS011;1685;53.104;8.228;2023-01-28T09:46:52;15.90;;;12.00;;
3343;SDS011;1685;53.104;8.228;2023-01-28T09:49:20;17.47;;;13.10;;
3343;SDS011;1685;53.104;8.228;2023-01-28T09:51:53;17.77;;;13.20;;
3343;SDS011;1685;53.104;8.228;2023-01-28T09:54:23;17.27;;;12.77;;
3343;SDS011;1685;53.104;8.228;2023-01-28T09:56:55;15.67;;;11.77;;
3343;SDS011;1685;53.104;8.228;2023-01-28T09:59:30;15.60;;;12.20;;
3343;SDS011;1685;53.104;8.228;2023-01-28T10:02:03;18.50;;;12.37;;
3343;SDS011;1685;53.104;8.228;2023-01-28T10:04:47;20.07;;;13.83;;
3343;SDS011;1685;53.104;8.228;2023-01-28T10:07:25;15.93;;;12.13;;
3343;SDS011;1685;53.104;8.228;2023-01-28T10:10:00;17.17;;;12.97;;
3343;SDS011;1685;53.104;8.228;2023-01-28T10:12:35;18.60;;;12.47;;
3343;SDS011;1685;53.104;8.228;2023-01-28T10:15:20;24.70;;;11.60;;
3343;SDS011;1685;53.104;8.228;2023-01-28T10:18:06;15.17;;;10.90;;
3343;SDS011;1685;53.104;8.228;2023-01-28T10:20:36;18.00;;;13.70;;
3343;SDS011;1685;53.104;8.228;2023-01-28T10:23:10;18.10;;;12.17;;
3343;SDS011;1685;53.104;8.228;2023-01-28T10:25:41;16.53;;;11.80;;
3343;SDS011;1685;53.104;8.228;2023-01-28T10:28:13;19.27;;;11.13;;
3343;SDS011;1685;53.104;8.228;2023-01-28T10:30:45;13.13;;;10.80;;
3343;SDS011;1685;53.104;8.228;2023-01-28T10:33:15;11.50;;;9.90;;
3343;SDS011;1685;53.104;8.228;2023-01-28T10:35:45;15.80;;;10.93;;
3343;SDS011;1685;53.104;8.228;2023-01-28T10:38:13;12.00;;;9.90;;
3343;SDS011;1685;53.104;8.228;2023-01-28T10:40:42;13.93;;;10.17;;
3343;SDS011;1685;53.104;8.228;2023-01-28T10:43:11;10.50;;;9.27;;
3343;SDS011;1685;53.104;8.228;2023-01-28T10:45:41;16.60;;;10.10;;
3343;SDS011;1685;53.104;8.228;2023-01-28T10:48:16;13.10;;;10.17;;
3343;SDS011;1685;53.104;8.228;2023-01-28T10:50:48;11.20;;;9.83;;
3343;SDS011;1685;53.104;8.228;2023-01-28T10:53:17;13.27;;;9.70;;
3343;SDS011;1685;53.104;8.228;2023-01-28T10:55:48;10.87;;;8.00;;
3343;SDS011;1685;53.104;8.228;2023-01-28T10:58:18;16.70;;;9.67;;
3343;SDS011;1685;53.104;8.228;2023-01-28T11:00:50;9.90;;;8.90;;
3343;SDS011;1685;53.104;8.228;2023-01-28T11:03:20;10.53;;;9.13;;
3343;SDS011;1685;53.104;8.228;2023-01-28T11:05:51;9.87;;;8.77;;
3343;SDS011;1685;53.104;8.228;2023-01-28T11:08:20;12.50;;;9.50;;
3343;SDS011;1685;53.104;8.228;2023-01-28T11:10:49;11.50;;;9.37;;
3343;SDS011;1685;53.104;8.228;2023-01-28T11:13:17;11.47;;;9.20;;
3343;SDS011;1685;53.104;8.228;2023-01-28T11:15:45;11.70;;;9.90;;
3343;SDS011;1685;53.104;8.228;2023-01-28T11:18:14;10.67;;;8.70;;
3343;SDS011;1685;53.104;8.228;2023-01-28T11:20:49;13.30;;;9.10;;
3343;SDS011;1685;53.104;8.228;2023-01-28T11:23:18;9.20;;;8.30;;
3343;SDS011;1685;53.104;8.228;2023-01-28T11:25:48;10.60;;;9.27;;
3343;SDS011;1685;53.104;8.228;2023-01-28T11:28:16;13.07;;;8.60;;
3343;SDS011;1685;53.104;8.228;2023-01-28T11:30:49;13.60;;;10.07;;
3343;SDS011;1685;53.104;8.228;2023-01-28T11:33:17;13.87;;;9.00;;
3343;SDS011;1685;53.104;8.228;2023-01-28T11:35:57;12.00;;;10.00;;
3343;SDS011;1685;53.104;8.228;2023-01-28T11:38:29;11.00;;;9.73;;
3343;SDS011;1685;53.104;8.228;2023-01-28T11:40:57;14.30;;;8.27;;
3343;SDS011;1685;53.104;8.228;2023-01-28T11:43:25;12.67;;;10.03;;
3343;SDS011;1685;53.104;8.228;2023-01-28T11:45:55;11.80;;;9.50;;
3343;SDS011;1685;53.104;8.228;2023-01-28T11:48:31;9.20;;;8.30;;
3343;SDS011;1685;53.104;8.228;2023-01-28T11:51:12;10.33;;;9.00;;
3343;SDS011;1685;53.104;8.228;2023-01-28T11:53:59;10.10;;;9.10;;
3343;SDS011;1685;53.104;8.228;2023-01-28T11:56:45;11.17;;;8.50;;
3343;SDS011;1685;53.104;8.228;2023-01-28T11:59:24;10.30;;;9.30;;
3343;SDS011;1685;53.104;8.228;2023-01-28T12:02:03;10.70;;;8.73;;
3343;SDS011;1685;53.104;8.228;2023-01-28T12:04:47;10.30;;;9.20;;
3343;SDS011;1685;53.104;8.228;2023-01-28T12:07:32;10.97;;;9.17;;
3343;SDS011;1685;53.104;8.228;2023-01-28T12:10:08;10.20;;;8.50;;
3343;SDS011;1685;53.104;8.228;2023-01-28T12:12:57;8.83;;;7.93;;
3343;SDS011;1685;53.104;8.228;2023-01-28T12:15:46;10.00;;;8.97;;
3343;SDS011;1685;53.104;8.228;2023-01-28T12:18:42;11.47;;;9.53;;
3343;SDS011;1685;53.104;8.228;2023-01-28T12:21:28;10.90;;;8.80;;
3343;SDS011;1685;53.104;8.228;2023-01-28T12:24:08;12.60;;;9.20;;
3343;SDS011;1685;53.104;8.228;2023-01-28T12:26:49;10.10;;;8.90;;
3343;SDS011;1685;53.104;8.228;2023-01-28T12:29:22;10.10;;;9.07;;
3343;SDS011;1685;53.104;8.228;2023-01-28T12:32:01;10.87;;;8.77;;
3343;SDS011;1685;53.104;8.228;2023-01-28T12:34:59;9.47;;;8.20;;
3343;SDS011;1685;53.104;8.228;2023-01-28T12:37:43;9.60;;;8.60;;
3343;SDS011;1685;53.104;8.228;2023-01-28T12:40:28;11.23;;;7.80;;
3343;SDS011;1685;53.104;8.228;2023-01-28T12:43:10;10.83;;;8.93;;
3343;SDS011;1685;53.104;8.228;2023-01-28T12:45:42;9.47;;;8.53;;
3343;SDS011;1685;53.104;8.228;2023-01-28T12:48:12;14.93;;;8.57;;
3343;SDS011;1685;53.104;8.228;2023-01-28T12:50:45;12.57;;;9.17;;
3343;SDS011;1685;53.104;8.228;2023-01-28T12:53:19;10.60;;;8.40;;
3343;SDS011;1685;53.104;8.228;2023-01-28T12:55:53;9.40;;;8.47;;
3343;SDS011;1685;53.104;8.228;2023-01-28T12:58:30;10.47;;;9.20;;
3343;SDS011;1685;53.104;8.228;2023-01-28T13:01:03;11.30;;;9.03;;
3343;SDS011;1685;53.104;8.228;2023-01-28T13:03:33;17.33;;;9.80;;
3343;SDS011;1685;53.104;8.228;2023-01-28T13:06:04;10.60;;;9.17;;
3343;SDS011;1685;53.104;8.228;2023-01-28T13:08:35;11.27;;;8.50;;
3343;SDS011;1685;53.104;8.228;2023-01-28T13:11:03;12.87;;;8.23;;
3343;SDS011;1685;53.104;8.228;2023-01-28T13:13:32;8.57;;;7.77;;
3343;SDS011;1685;53.104;8.228;2023-01-28T13:16:01;9.63;;;8.63;;
3343;SDS011;1685;53.104;8.228;2023-01-28T13:18:30;9.90;;;9.00;;
3343;SDS011;1685;53.104;8.228;2023-01-28T13:21:11;10.70;;;8.27;;
3343;SDS011;1685;53.104;8.228;2023-01-28T13:23:41;9.03;;;8.00;;
3343;SDS011;1685;53.104;8.228;2023-01-28T13:26:35;12.33;;;8.13;;
3343;SDS011;1685;53.104;8.228;2023-01-28T13:29:08;10.27;;;8.67;;
3343;SDS011;1685;53.104;8.228;2023-01-28T13:31:44;13.13;;;8.57;;
3343;SDS011;1685;53.104;8.228;2023-01-28T13:34:24;8.40;;;7.60;;
3343;SDS011;1685;53.104;8.228;2023-01-28T13:36:58;8.27;;;7.33;;
3343;SDS011;1685;53.104;8.228;2023-01-28T13:39:27;8.17;;;7.37;;
3343;SDS011;1685;53.104;8.228;2023-01-28T13:42:08;9.50;;;8.10;;
3343;SDS011;1685;53.104;8.228;2023-01-28T13:44:45;9.80;;;8.33;;
3343;SDS011;1685;53.104;8.228;2023-01-28T13:47:13;9.00;;;8.10;;
3343;SDS011;1685;53.104;8.228;2023-01-28T13:49:46;9.37;;;7.47;;
3343;SDS011;1685;53.104;8.228;2023-01-28T13:52:15;9.03;;;8.23;;
3343;SDS011;1685;53.104;8.228;2023-01-28T13:54:49;9.40;;;8.23;;
3343;SDS011;1685;53.104;8.228;2023-01-28T14:00:27;8.80;;;7.57;;
3343;SDS011;1685;53.104;8.228;2023-01-28T14:03:07;7.60;;;6.57;;
3343;SDS011;1685;53.104;8.228;2023-01-28T14:09:10;9.37;;;7.53;;
3343;SDS011;1685;53.104;8.228;2023-01-28T14:12:14;8.07;;;7.30;;
3343;SDS011;1685;53.104;8.228;2023-01-28T14:18:05;9.07;;;6.93;;
3343;SDS011;1685;53.104;8.228;2023-01-28T14:20:41;8.03;;;6.70;;
3343;SDS011;1685;53.104;8.228;2023-01-28T14:23:13;8.03;;;7.23;;
3343;SDS011;1685;53.104;8.228;2023-01-28T14:25:45;8.90;;;7.17;;
3343;SDS011;1685;53.104;8.228;2023-01-28T14:28:24;9.13;;;7.90;;
3343;SDS011;1685;53.104;8.228;2023-01-28T14:31:02;8.80;;;7.90;;
3343;SDS011;1685;53.104;8.228;2023-01-28T14:33:33;10.03;;;7.87;;
3343;SDS011;1685;53.104;8.228;2023-01-28T14:36:01;12.70;;;6.97;;
3343;SDS011;1685;53.104;8.228;2023-01-28T14:38:28;11.73;;;9.80;;
3343;SDS011;1685;53.104;8.228;2023-01-28T14:41:01;11.23;;;9.40;;
3343;SDS011;1685;53.104;8.228;2023-01-28T14:43:30;13.60;;;9.40;;
3343;SDS011;1685;53.104;8.228;2023-01-28T14:46:02;9.53;;;8.30;;
3343;SDS011;1685;53.104;8.228;2023-01-28T14:48:37;10.03;;;8.27;;
3343;SDS011;1685;53.104;8.228;2023-01-28T14:51:33;8.50;;;7.60;;
3343;SDS011;1685;53.104;8.228;2023-01-28T14:54:19;11.93;;;8.17;;
3343;SDS011;1685;53.104;8.228;2023-01-28T14:57:05;9.27;;;7.30;;
3343;SDS011;1685;53.104;8.228;2023-01-28T14:59:43;11.50;;;7.70;;
3343;SDS011;1685;53.104;8.228;2023-01-28T15:02:17;10.83;;;8.53;;
3343;SDS011;1685;53.104;8.228;2023-01-28T15:04:45;8.13;;;7.30;;
3343;SDS011;1685;53.104;8.228;2023-01-28T15:07:16;11.93;;;7.73;;
3343;SDS011;1685;53.104;8.228;2023-01-28T15:09:44;8.77;;;7.87;;
3343;SDS011;1685;53.104;8.228;2023-01-28T15:12:12;9.67;;;7.17;;
3343;SDS011;1685;53.104;8.228;2023-01-28T15:14:40;11.87;;;7.50;;
3343;SDS011;1685;53.104;8.228;2023-01-28T15:17:11;10.60;;;8.13;;
3343;SDS011;1685;53.104;8.228;2023-01-28T15:19:49;10.00;;;8.33;;
3343;SDS011;1685;53.104;8.228;2023-01-28T15:22:16;11.17;;;9.00;;
3343;SDS011;1685;53.104;8.228;2023-01-28T15:24:48;8.80;;;7.80;;
3343;SDS011;1685;53.104;8.228;2023-01-28T15:27:15;9.80;;;8.33;;
3343;SDS011;1685;53.104;8.228;2023-01-28T15:29:49;10.57;;;9.37;;
3343;SDS011;1685;53.104;8.228;2023-01-28T15:32:22;13.33;;;9.70;;
3343;SDS011;1685;53.104;8.228;2023-01-28T15:34:50;9.50;;;8.10;;
3343;SDS011;1685;53.104;8.228;2023-01-28T15:37:16;8.30;;;7.40;;
3343;SDS011;1685;53.104;8.228;2023-01-28T15:39:44;12.50;;;8.67;;